createdAt,value
2018-08-07T00:02:20.939Z,20.30
2018-08-07T00:04:56.721Z,20.30
2018-08-07T00:07:31.656Z,20.20
2018-08-07T00:10:08.071Z,20.30
2018-08-07T00:15:41.544Z,20.10
2018-08-07T00:18:17.007Z,20.10
2018-08-07T00:20:51.827Z,20.10
2018-08-07T00:23:26.919Z,20.10
2018-08-07T00:26:01.941Z,20.10
2018-08-07T00:28:36.279Z,20.10
2018-08-07T00:31:10.630Z,20.00
2018-08-07T00:33:46.226Z,20.00
2018-08-07T00:36:20.355Z,19.90
2018-08-07T00:38:54.593Z,19.80
2018-08-07T00:41:29.793Z,19.80
2018-08-07T00:44:04.210Z,19.80
2018-08-07T00:46:39.494Z,19.80
2018-08-07T00:49:14.149Z,19.80
2018-08-07T00:51:48.343Z,19.70
2018-08-07T00:54:22.875Z,19.70
2018-08-07T00:57:01.846Z,19.60
2018-08-07T00:59:39.673Z,19.60
2018-08-07T01:02:15.443Z,19.60
2018-08-07T01:04:51.902Z,19.60
2018-08-07T01:07:26.048Z,19.50
2018-08-07T01:10:00.259Z,19.50
2018-08-07T01:12:35.606Z,19.50
2018-08-07T01:15:13.292Z,19.50
2018-08-07T01:17:49.444Z,19.40
2018-08-07T01:20:24.289Z,19.40
2018-08-07T01:22:58.523Z,19.40
2018-08-07T01:25:34.049Z,19.40
2018-08-07T01:28:11.129Z,19.40
2018-08-07T01:30:46.763Z,19.30
2018-08-07T01:33:21.773Z,19.20
2018-08-07T01:35:57.144Z,19.20
2018-08-07T01:38:33.320Z,19.10
2018-08-07T01:41:09.134Z,19.10
2018-08-07T01:43:44.168Z,19.10
2018-08-07T01:46:18.355Z,19.10
2018-08-07T01:48:53.124Z,18.90
2018-08-07T01:51:30.360Z,18.90
2018-08-07T01:54:06.269Z,18.80
2018-08-07T01:56:41.306Z,18.70
2018-08-07T01:59:15.916Z,18.70
2018-08-07T02:01:51.477Z,18.70
2018-08-07T02:04:26.123Z,18.70
2018-08-07T02:07:00.831Z,18.70
2018-08-07T02:09:35.688Z,18.70
2018-08-07T02:12:10.896Z,18.70
2018-08-07T02:14:45.744Z,18.70
2018-08-07T02:17:23.635Z,18.70
2018-08-07T02:19:58.127Z,18.80
2018-08-07T02:22:33.245Z,18.80
2018-08-07T02:25:09.188Z,18.70
2018-08-07T02:27:45.673Z,18.70
2018-08-07T02:30:21.785Z,18.70
2018-08-07T02:32:57.277Z,18.60
2018-08-07T02:35:32.333Z,18.60
2018-08-07T02:38:06.602Z,18.60
2018-08-07T02:40:40.858Z,18.60
2018-08-07T02:43:17.947Z,18.50
2018-08-07T02:45:53.989Z,18.50
2018-08-07T02:48:31.328Z,18.60
2018-08-07T02:51:06.169Z,18.60
2018-08-07T02:53:40.592Z,18.50
2018-08-07T02:56:15.545Z,18.60
2018-08-07T02:58:50.693Z,18.50
2018-08-07T03:01:25.209Z,18.50
2018-08-07T03:09:11.033Z,18.50
2018-08-07T03:11:50.333Z,18.50
2018-08-07T03:14:24.758Z,18.50
2018-08-07T03:16:59.566Z,18.50
2018-08-07T03:19:34.363Z,18.50
2018-08-07T03:22:12.839Z,18.40
2018-08-07T03:24:47.665Z,18.40
2018-08-07T03:27:21.936Z,18.40
2018-08-07T03:29:56.323Z,18.40
2018-08-07T03:32:32.622Z,18.40
2018-08-07T03:35:08.170Z,18.40
2018-08-07T03:37:45.297Z,18.40
2018-08-07T03:40:20.238Z,18.40
2018-08-07T03:42:55.104Z,18.40
2018-08-07T03:45:30.093Z,18.40
2018-08-07T03:48:04.596Z,18.40
2018-08-07T03:50:39.678Z,18.30
2018-08-07T03:53:13.908Z,18.40
2018-08-07T03:55:48.124Z,18.40
2018-08-07T03:58:23.779Z,18.50
2018-08-07T04:00:59.952Z,18.50
2018-08-07T04:03:34.145Z,18.50
2018-08-07T04:06:08.264Z,18.50
2018-08-07T04:08:42.992Z,18.60
2018-08-07T04:11:17.757Z,18.70
2018-08-07T04:13:52.488Z,18.70
2018-08-07T04:16:26.790Z,18.80
2018-08-07T04:19:01.582Z,18.80
2018-08-07T04:21:36.118Z,18.90
2018-08-07T04:24:10.385Z,19.00
2018-08-07T04:26:45.074Z,19.00
2018-08-07T04:29:19.354Z,19.00
2018-08-07T04:31:54.712Z,19.20
2018-08-07T04:34:32.688Z,19.20
2018-08-07T04:37:07.900Z,19.30
2018-08-07T04:39:42.093Z,19.50
2018-08-07T04:42:16.903Z,19.60
2018-08-07T04:44:57.511Z,19.60
2018-08-07T04:47:32.335Z,19.60
2018-08-07T04:50:08.981Z,19.70
2018-08-07T04:52:43.413Z,19.80
2018-08-07T04:55:19.322Z,19.90
2018-08-07T04:57:53.393Z,19.90
2018-08-07T05:00:28.573Z,20.00
2018-08-07T05:03:03.261Z,20.20
2018-08-07T05:05:38.232Z,20.30
2018-08-07T05:08:12.378Z,20.30
2018-08-07T05:10:47.883Z,20.40
2018-08-07T05:13:23.013Z,20.50
2018-08-07T05:15:58.633Z,20.60
2018-08-07T05:18:32.741Z,20.70
2018-08-07T05:21:09.768Z,20.80
2018-08-07T05:23:45.713Z,20.90
2018-08-07T05:26:20.820Z,21.00
2018-08-07T05:28:55.714Z,21.00
2018-08-07T05:31:35.052Z,21.10
2018-08-07T05:34:11.287Z,21.20
2018-08-07T05:36:47.008Z,21.20
2018-08-07T05:39:22.752Z,21.30
2018-08-07T05:41:57.795Z,21.30
2018-08-07T05:44:32.832Z,21.40
2018-08-07T05:47:07.530Z,21.50
2018-08-07T05:49:41.997Z,21.50
2018-08-07T05:52:17.311Z,21.50
2018-08-07T05:54:52.392Z,21.70
2018-08-07T05:57:28.412Z,21.80
2018-08-07T06:00:07.523Z,21.90
2018-08-07T06:02:42.622Z,22.00
2018-08-07T06:05:20.147Z,22.10
2018-08-07T06:07:56.519Z,22.20
2018-08-07T06:10:31.120Z,22.30
2018-08-07T06:13:06.637Z,22.40
2018-08-07T06:15:41.275Z,22.50
2018-08-07T06:18:15.867Z,22.50
2018-08-07T06:20:51.208Z,22.70
2018-08-07T06:23:25.539Z,22.90
2018-08-07T06:26:00.277Z,23.00
2018-08-07T06:28:35.175Z,23.20
2018-08-07T06:33:44.486Z,23.50
2018-08-07T06:36:19.637Z,23.60
2018-08-07T06:38:55.056Z,23.70
2018-08-07T06:41:30.937Z,23.90
2018-08-07T06:44:05.721Z,24.00
2018-08-07T06:46:40.756Z,24.10
2018-08-07T06:49:17.414Z,24.30
2018-08-07T06:51:54.198Z,24.50
2018-08-07T06:54:29.511Z,24.60
2018-08-07T06:57:04.092Z,24.70
2018-08-07T06:59:38.274Z,25.00
2018-08-07T07:02:13.835Z,25.10
2018-08-07T07:04:48.188Z,25.20
2018-08-07T07:07:23.497Z,25.30
2018-08-07T07:10:01.606Z,25.50
2018-08-07T07:12:38.193Z,25.60
2018-08-07T07:15:19.077Z,25.70
2018-08-07T07:17:53.395Z,25.90
2018-08-07T07:20:29.500Z,26.10
2018-08-07T07:23:06.447Z,26.20
2018-08-07T07:25:41.366Z,26.40
2018-08-07T07:30:55.612Z,26.70
2018-08-07T07:33:33.229Z,26.70
2018-08-07T07:36:07.461Z,26.70
2018-08-07T07:38:43.914Z,26.80
2018-08-07T07:41:18.904Z,26.90
2018-08-07T07:43:54.040Z,26.90
2018-08-07T07:46:29.634Z,27.00
2018-08-07T07:49:04.508Z,27.10
2018-08-07T07:51:39.394Z,27.20
2018-08-07T07:54:14.201Z,27.20
2018-08-07T07:56:49.875Z,27.30
2018-08-07T07:59:24.764Z,27.50
2018-08-07T08:02:01.131Z,27.60
2018-08-07T08:04:36.149Z,27.60
2018-08-07T08:07:11.409Z,27.70
2018-08-07T08:09:45.909Z,27.80
2018-08-07T08:12:21.656Z,28.00
2018-08-07T08:14:56.897Z,28.10
2018-08-07T08:17:32.196Z,28.30
2018-08-07T08:20:09.356Z,28.40
2018-08-07T08:22:44.865Z,28.50
2018-08-07T08:25:20.563Z,28.60
2018-08-07T08:27:55.043Z,28.70
2018-08-07T08:30:29.563Z,28.80
2018-08-07T08:33:05.117Z,28.90
2018-08-07T08:35:41.145Z,28.90
2018-08-07T08:38:19.099Z,29.00
2018-08-07T08:40:53.637Z,29.00
2018-08-07T08:43:29.661Z,29.20
2018-08-07T08:46:04.476Z,29.20
2018-08-07T08:48:39.612Z,29.20
2018-08-07T08:51:14.667Z,29.40
2018-08-07T08:53:48.861Z,29.40
2018-08-07T08:56:23.368Z,29.50
2018-08-07T08:58:58.572Z,29.60
2018-08-07T09:01:35.151Z,29.80
2018-08-07T09:04:09.356Z,29.80
2018-08-07T09:06:44.450Z,30.00
2018-08-07T09:09:19.958Z,30.20
2018-08-07T09:11:54.628Z,30.30
2018-08-07T09:14:28.943Z,30.50
2018-08-07T09:17:10.049Z,30.70
2018-08-07T09:19:50.290Z,30.70
2018-08-07T09:22:25.113Z,30.90
2018-08-07T09:25:00.146Z,31.00
2018-08-07T09:27:34.759Z,31.20
2018-08-07T09:30:17.654Z,31.10
2018-08-07T09:32:52.858Z,31.20
2018-08-07T09:35:28.001Z,31.30
2018-08-07T09:38:03.207Z,31.40
2018-08-07T09:40:43.182Z,31.60
2018-08-07T09:43:19.202Z,31.90
2018-08-07T09:45:53.540Z,32.30
2018-08-07T09:48:28.535Z,32.50
2018-08-07T09:51:03.519Z,32.60
2018-08-07T09:53:39.208Z,32.60
2018-08-07T09:56:15.144Z,32.60
2018-08-07T09:58:55.382Z,32.50
2018-08-07T10:01:32.285Z,32.50
2018-08-07T10:04:07.505Z,32.30
2018-08-07T10:06:45.119Z,32.30
2018-08-07T10:09:22.480Z,32.40
2018-08-07T10:11:57.315Z,32.40
2018-08-07T10:14:35.635Z,32.30
2018-08-07T10:17:10.970Z,32.30
2018-08-07T10:19:45.297Z,32.40
2018-08-07T10:22:20.959Z,32.50
2018-08-07T10:25:02.427Z,32.60
2018-08-07T10:27:37.784Z,32.60
2018-08-07T10:30:20.695Z,32.80
2018-08-07T10:32:55.343Z,32.80
2018-08-07T10:35:29.933Z,32.80
2018-08-07T10:38:08.241Z,32.80
2018-08-07T10:40:44.664Z,32.90
2018-08-07T10:43:26.124Z,33.10
2018-08-07T10:46:01.841Z,33.20
2018-08-07T10:48:36.305Z,33.30
2018-08-07T10:51:12.015Z,33.40
2018-08-07T10:53:49.248Z,33.50
2018-08-07T10:56:25.555Z,33.60
2018-08-07T10:59:01.454Z,33.70
2018-08-07T11:01:36.133Z,33.50
2018-08-07T11:04:10.773Z,33.50
2018-08-07T11:06:47.020Z,33.50
2018-08-07T11:09:22.168Z,33.50
2018-08-07T11:11:59.032Z,33.50
2018-08-07T11:14:37.970Z,33.50
2018-08-07T11:17:15.351Z,33.70
2018-08-07T11:19:52.288Z,33.70
2018-08-07T11:22:27.474Z,33.80
2018-08-07T11:25:03.800Z,34.00
2018-08-07T11:27:38.236Z,34.00
2018-08-07T11:30:18.941Z,34.20
2018-08-07T11:32:54.403Z,34.40
2018-08-07T11:35:29.896Z,34.40
2018-08-07T11:38:05.445Z,34.40
2018-08-07T11:40:40.527Z,34.40
2018-08-07T11:43:16.301Z,34.50
2018-08-07T11:45:50.812Z,34.60
2018-08-07T11:48:25.873Z,34.80
2018-08-07T11:51:01.964Z,34.70
2018-08-07T11:53:37.774Z,34.80
2018-08-07T11:56:51.857Z,34.90
2018-08-07T11:59:26.090Z,35.20
2018-08-07T12:02:00.362Z,35.20
2018-08-07T12:04:35.084Z,35.40
2018-08-07T12:07:10.033Z,35.60
2018-08-07T12:09:44.284Z,35.80
2018-08-07T12:12:18.530Z,36.00
2018-08-07T12:14:52.880Z,36.20
2018-08-07T12:17:27.431Z,36.40
2018-08-07T12:20:02.852Z,36.90
2018-08-07T12:22:37.645Z,37.40
2018-08-07T12:25:14.124Z,37.80
2018-08-07T12:27:48.455Z,38.30
2018-08-07T12:30:24.910Z,38.80
2018-08-07T12:32:59.840Z,38.80
2018-08-07T12:35:34.062Z,39.10
2018-08-07T12:38:08.324Z,39.50
2018-08-07T12:40:43.597Z,39.70
2018-08-07T12:43:18.840Z,40.30
2018-08-07T12:45:53.092Z,41.00
2018-08-07T12:48:27.353Z,41.80
2018-08-07T12:51:01.439Z,41.70
2018-08-07T12:53:35.716Z,41.50
2018-08-07T12:56:15.910Z,41.20
2018-08-07T12:58:50.210Z,41.40
2018-08-07T13:01:25.997Z,42.00
2018-08-07T13:04:00.817Z,43.00
2018-08-07T13:06:35.549Z,43.60
2018-08-07T13:09:12.436Z,44.60
2018-08-07T13:11:46.853Z,44.70
2018-08-07T13:14:21.875Z,45.30
2018-08-07T13:16:56.026Z,45.10
2018-08-07T13:19:31.633Z,44.40
2018-08-07T13:22:06.462Z,45.70
2018-08-07T13:24:41.768Z,46.40
2018-08-07T13:27:16.965Z,45.50
2018-08-07T13:29:52.834Z,45.50
2018-08-07T13:32:27.187Z,46.70
2018-08-07T13:35:01.371Z,47.50
2018-08-07T13:37:36.580Z,46.40
2018-08-07T13:40:13.000Z,45.40
2018-08-07T13:42:48.037Z,45.00
2018-08-07T13:45:23.960Z,45.10
2018-08-07T13:47:58.591Z,45.70
2018-08-07T13:50:32.795Z,46.60
2018-08-07T13:53:07.036Z,48.00
2018-08-07T13:55:41.348Z,46.60
2018-08-07T13:58:16.104Z,45.80
2018-08-07T14:00:51.372Z,45.20
2018-08-07T14:03:25.826Z,45.40
2018-08-07T14:06:02.061Z,46.10
2018-08-07T14:08:36.397Z,46.80
2018-08-07T14:11:12.557Z,48.20
2018-08-07T14:13:46.997Z,49.10
2018-08-07T14:16:21.252Z,49.80
2018-08-07T14:18:55.566Z,50.70
2018-08-07T14:21:29.815Z,51.20
2018-08-07T14:24:04.204Z,51.60
2018-08-07T14:26:39.156Z,52.00
2018-08-07T14:29:13.768Z,51.60
2018-08-07T14:31:48.037Z,52.30
2018-08-07T14:34:23.545Z,52.60
2018-08-07T14:36:58.955Z,50.80
2018-08-07T14:39:33.847Z,49.40
2018-08-07T14:42:08.729Z,50.50
2018-08-07T14:44:43.938Z,50.20
2018-08-07T14:47:20.416Z,50.30
2018-08-07T14:49:54.615Z,51.40
2018-08-07T14:52:30.993Z,52.90
2018-08-07T14:55:06.076Z,54.50
2018-08-07T14:57:42.293Z,55.30
2018-08-07T15:00:19.592Z,55.80
2018-08-07T15:02:54.508Z,56.00
2018-08-07T15:05:28.794Z,56.50
2018-08-07T15:08:03.056Z,56.10
2018-08-07T15:10:37.385Z,56.00
2018-08-07T15:13:12.422Z,55.30
2018-08-07T15:15:46.623Z,54.00
2018-08-07T15:18:23.220Z,52.10
2018-08-07T15:20:57.906Z,52.00
2018-08-07T15:23:35.408Z,53.90
2018-08-07T15:26:09.643Z,54.70
2018-08-07T15:28:45.345Z,55.70
2018-08-07T15:31:19.566Z,56.40
2018-08-07T15:33:53.808Z,56.90
2018-08-07T15:36:29.076Z,56.60
2018-08-07T15:39:03.491Z,57.10
2018-08-07T15:41:38.724Z,56.00
2018-08-07T15:44:13.292Z,56.10
2018-08-07T15:46:48.238Z,56.30
2018-08-07T15:49:22.805Z,56.70
2018-08-07T15:51:57.123Z,54.10
2018-08-07T15:54:32.105Z,54.70
2018-08-07T15:57:08.086Z,54.30
2018-08-07T15:59:42.544Z,53.50
2018-08-07T16:02:17.082Z,53.40
2018-08-07T16:04:52.174Z,53.90
2018-08-07T16:07:26.572Z,54.90
2018-08-07T16:10:01.203Z,55.80
2018-08-07T16:12:35.445Z,56.60
2018-08-07T16:15:10.787Z,57.10
2018-08-07T16:17:46.556Z,57.90
2018-08-07T16:20:21.447Z,58.10
2018-08-07T16:22:55.660Z,57.80
2018-08-07T16:25:35.412Z,57.90
2018-08-07T16:28:11.116Z,57.10
2018-08-07T16:30:45.556Z,56.70
2018-08-07T16:33:20.454Z,56.50
2018-08-07T16:35:55.405Z,56.40
2018-08-07T16:38:29.716Z,56.50
2018-08-07T16:41:03.956Z,56.60
2018-08-07T16:43:38.597Z,55.50
2018-08-07T16:46:13.632Z,55.70
2018-08-07T16:48:48.279Z,55.80
2018-08-07T16:51:23.783Z,55.70
2018-08-07T16:53:57.880Z,55.40
2018-08-07T16:56:34.116Z,55.90
2018-08-07T16:59:08.329Z,55.80
2018-08-07T17:01:43.081Z,55.40
2018-08-07T17:04:17.469Z,54.60
2018-08-07T17:06:52.120Z,54.40
2018-08-07T17:09:27.731Z,53.70
2018-08-07T17:12:01.880Z,52.00
2018-08-07T17:14:36.988Z,50.30
2018-08-07T17:17:13.379Z,47.80
2018-08-07T17:19:48.852Z,46.00
2018-08-07T17:22:23.114Z,44.40
2018-08-07T17:24:57.575Z,44.60
2018-08-07T17:27:32.423Z,46.30
2018-08-07T17:30:11.973Z,46.50
2018-08-07T17:32:46.412Z,46.00
2018-08-07T17:35:22.933Z,45.90
2018-08-07T17:37:58.348Z,46.40
2018-08-07T17:40:32.589Z,46.70
2018-08-07T17:43:08.737Z,45.10
2018-08-07T17:45:43.159Z,43.30
2018-08-07T17:48:22.351Z,42.00
2018-08-07T17:50:56.448Z,41.50
2018-08-07T17:53:31.029Z,41.80
2018-08-07T17:56:05.703Z,40.90
2018-08-07T17:58:40.692Z,40.20
2018-08-07T18:01:14.999Z,39.60
2018-08-07T18:03:49.188Z,39.00
2018-08-07T18:06:23.399Z,38.60
2018-08-07T18:08:58.471Z,38.30
2018-08-07T18:11:32.940Z,38.00
2018-08-07T18:14:08.801Z,37.80
2018-08-07T18:16:44.530Z,37.40
2018-08-07T18:19:23.869Z,37.10
2018-08-07T18:22:02.228Z,36.80
2018-08-07T18:24:36.679Z,36.40
2018-08-07T18:27:12.352Z,36.20
2018-08-07T18:29:46.821Z,35.90
2018-08-07T18:32:21.569Z,35.70
2018-08-07T18:34:55.715Z,35.30
2018-08-07T18:37:31.852Z,35.10
2018-08-07T18:40:07.126Z,34.80
2018-08-07T18:43:04.176Z,34.60
2018-08-07T18:45:39.976Z,34.50
2018-08-07T18:48:16.636Z,34.40
2018-08-07T18:50:52.271Z,34.30
2018-08-07T18:53:28.380Z,34.20
2018-08-07T18:56:05.982Z,34.00
2018-08-07T18:58:40.701Z,33.80
2018-08-07T19:01:33.792Z,33.70
2018-08-07T19:04:07.916Z,33.60
2018-08-07T19:06:42.144Z,33.50
2018-08-07T19:09:16.689Z,33.30
2018-08-07T19:12:02.177Z,33.10
2018-08-07T19:14:36.502Z,32.90
2018-08-07T19:23:15.599Z,32.00
2018-08-07T19:25:49.859Z,31.80
2018-08-07T19:28:29.408Z,31.50
2018-08-07T19:31:18.140Z,31.30
2018-08-07T19:39:50.803Z,30.50
2018-08-07T19:42:26.844Z,30.40
2018-08-07T19:45:01.929Z,30.30
2018-08-07T19:47:37.732Z,30.20
2018-08-07T19:50:27.312Z,30.00
2018-08-07T19:56:07.344Z,30.00
2018-08-07T19:58:52.569Z,30.00
2018-08-07T20:01:33.823Z,29.90
2018-08-07T20:04:08.558Z,29.90
2018-08-07T20:06:43.877Z,29.90
2018-08-07T20:09:18.844Z,29.80
2018-08-07T20:11:56.591Z,29.80
2018-08-07T20:14:35.898Z,29.70
2018-08-07T20:17:11.014Z,29.70
2018-08-07T20:19:47.768Z,29.60
2018-08-07T20:22:23.504Z,29.50
2018-08-07T20:25:16.281Z,29.50
2018-08-07T20:28:15.010Z,29.50
2018-08-07T20:30:52.459Z,29.40
2018-08-07T20:33:27.744Z,29.30
2018-08-07T20:36:02.808Z,29.20
2018-08-07T20:38:38.672Z,29.00
2018-08-07T20:41:16.209Z,28.90
2018-08-07T20:46:54.670Z,28.70
2018-08-07T20:49:28.660Z,28.60
2018-08-07T20:52:02.868Z,28.60
2018-08-07T20:54:37.232Z,28.50
2018-08-07T20:57:11.551Z,28.40
2018-08-07T20:59:45.903Z,28.40
2018-08-07T21:02:21.500Z,28.30
2018-08-07T21:04:57.221Z,28.20
2018-08-07T21:07:31.673Z,28.20
2018-08-07T21:10:15.364Z,28.10
2018-08-07T21:15:51.328Z,28.00
2018-08-07T21:18:25.777Z,27.90
2018-08-07T21:21:00.041Z,27.80
2018-08-07T21:23:35.334Z,27.70
2018-08-07T21:26:09.503Z,27.60
2018-08-07T21:28:51.793Z,27.60
2018-08-07T21:31:26.724Z,27.50
2018-08-07T21:34:02.303Z,27.40
2018-08-07T21:36:37.613Z,27.40
2018-08-07T21:39:13.326Z,27.40
2018-08-07T21:41:48.981Z,27.40
2018-08-07T21:44:23.227Z,27.40
2018-08-07T21:47:02.000Z,27.40
2018-08-07T21:49:37.955Z,27.40
2018-08-07T21:52:12.370Z,27.30
2018-08-07T21:54:46.611Z,27.40
2018-08-07T21:57:21.706Z,27.40
2018-08-07T21:59:58.464Z,27.30
2018-08-07T22:02:32.894Z,27.40
2018-08-07T22:05:11.414Z,27.40
2018-08-07T22:07:46.705Z,27.40
2018-08-07T22:10:22.715Z,27.40
2018-08-07T22:12:58.245Z,27.40
2018-08-07T22:15:32.853Z,27.40
2018-08-07T22:18:09.420Z,27.40
2018-08-07T22:20:44.511Z,27.40
2018-08-07T22:23:19.326Z,27.30
2018-08-07T22:25:53.682Z,27.30
2018-08-07T22:28:30.162Z,27.20
2018-08-07T22:31:04.465Z,27.20
2018-08-07T22:33:38.830Z,27.10
2018-08-07T22:36:14.026Z,27.00
2018-08-07T22:38:48.788Z,27.00
2018-08-07T22:41:24.280Z,26.90
2018-08-07T22:43:59.123Z,26.90
2018-08-07T22:46:33.702Z,26.80
2018-08-07T22:49:07.804Z,26.80
2018-08-07T22:51:46.980Z,26.80
2018-08-07T22:54:21.368Z,26.80
2018-08-07T22:56:59.970Z,26.70
2018-08-07T22:59:37.289Z,26.60
2018-08-07T23:02:12.618Z,26.60
2018-08-07T23:04:47.750Z,26.50
2018-08-07T23:07:22.077Z,26.50
2018-08-07T23:09:57.209Z,26.40
2018-08-07T23:12:32.313Z,26.40
2018-08-07T23:15:10.824Z,26.40
2018-08-07T23:17:45.872Z,26.40
2018-08-07T23:20:23.289Z,26.30
2018-08-07T23:22:58.493Z,26.30
2018-08-07T23:25:35.472Z,26.30
2018-08-07T23:28:09.590Z,26.20
2018-08-07T23:30:44.774Z,26.20
2018-08-07T23:33:19.042Z,26.20
2018-08-07T23:35:54.704Z,26.10
2018-08-07T23:38:29.765Z,26.10
2018-08-07T23:41:10.931Z,26.00
2018-08-07T23:43:46.771Z,26.00
2018-08-07T23:46:22.044Z,25.90
2018-08-07T23:48:56.986Z,25.90
2018-08-07T23:51:32.419Z,26.00
2018-08-07T23:54:07.591Z,26.00
2018-08-07T23:56:43.387Z,25.90
2018-08-07T23:59:20.211Z,25.90
